Latest Coastal Weather Observations for Charles Point

IDD60701

Issued at 9:21 am CST Wednesday 1 April 2015 (issued every 10 minutes, with the page automatically refreshed every 10 minutes)

About coastal observations | Map of coastal stations | Coastal observations for NT | Marine services | Other Formats
Station Details ID: 014031 Name: CHARLES POINT Lat: -12.39 Lon: 130.63 Height: 14.0 m
Data from the previous 72 hours. | See also: Recent months for locations in Northern Territory
Date/Time
CST
Temp

°C
Wind Pressure Rain
since 9am
mm
Weather Cloud Vis
km
Sea
Height
m
Swell
Dir
 
Speed
knots
Gust
knots
hPa Trend Height
m
Period
s
Dir
01/09:00am 30.1 ESE 1 2 1012.7 - 0.0 - - - - - - -
01/08:30am 29.5 CALM 0 1 1012.5 - 0.0 - - - - - - -
01/08:00am 27.5 S 1 2 1012.3 - 0.0 - - - - - - -
01/07:30am 25.9 S 3 4 1012.0 - 0.0 - - - - - - -
01/07:00am 25.3 S 3 4 1011.7 - 0.0 - - - - - - -
01/06:30am 25.3 S 3 4 1011.3 - 0.0 - - - - - - -
01/06:00am 25.4 S 4 5 1011.1 - 0.0 - - - - - - -
01/05:30am 25.4 S 4 4 1011.0 - 0.0 - - - - - - -
01/05:00am 25.6 S 4 5 1010.9 - 0.0 - - - - - - -
01/04:30am 25.4 S 4 5 1010.7 - 0.0 - - - - - - -
01/04:00am 25.6 S 4 5 1010.5 - 0.0 - - - - - - -
01/03:30am 25.2 S 4 5 1010.6 - 0.0 - - - - - - -
01/03:00am 25.3 S 4 5 1010.8 - 0.0 - - - - - - -
01/02:30am 25.2 S 4 5 1010.9 - 0.0 - - - - - - -
01/02:00am 25.2 S 3 3 1011.0 - 0.0 - - - - - - -
01/01:30am 25.4 CALM 0 0 1011.2 - 0.0 - - - - - - -
01/01:00am 25.6 CALM 0 0 1011.4 - 0.0 - - - - - - -
01/12:30am 26.0 CALM 0 0 1011.5 - 0.0 - - - - - - -
01/12:00am 26.6 ENE 1 3 1011.6 - 0.0 - - - - - - -
 
Date/Time
CST
Temp

°C
Wind Pressure Rain
since 9am
mm
Weather Cloud Vis
km
Sea
Height
m
Swell
Dir
 
Speed
knots
Gust
knots
hPa Trend Height
m
Period
s
Dir
31/11:30pm 27.3 CALM 0 2 1011.7 - 0.0 - - - - - - -
31/11:00pm 29.2 NNE 3 5 1011.9 - 0.0 - - - - - - -
31/10:30pm 29.6 NNE 4 6 1011.9 - 0.0 - - - - - - -
31/10:00pm 29.9 NE 6 8 1011.8 - 0.0 - - - - - - -
31/09:30pm 29.8 NE 6 9 1011.7 - 0.0 - - - - - - -
31/09:00pm 29.9 NE 6 9 1011.4 - 0.0 - - - - - - -
31/08:30pm 30.0 NE 7 9 1011.2 - 0.0 - - - - - - -
31/08:00pm 30.0 NE 7 10 1011.0 - 0.0 - - - - - - -
31/07:30pm 30.1 NE 8 11 1010.7 - 0.0 - - - - - - -
31/07:00pm 30.2 NE 9 11 1010.3 - 0.0 - - - - - - -
31/06:30pm 30.5 NE 8 11 1010.1 - 0.0 - - - - - - -
31/06:00pm 30.9 NE 11 15 1009.9 - 0.0 - - - - - - -
31/05:30pm 31.1 NE 7 11 1009.9 - 0.0 - - - - - - -
31/05:00pm 31.5 NE 6 9 1009.7 - 0.0 - - - - - - -
31/04:30pm 30.8 NNE 7 11 1009.5 - 0.0 - - - - - - -
31/04:00pm 31.5 NNE 7 9 1009.6 - 0.0 - - - - - - -
31/03:30pm 31.4 NE 8 10 1009.6 - 0.0 - - - - - - -
31/03:00pm 31.5 NNE 6 9 1009.8 - 0.0 - - - - - - -
31/02:30pm 31.0 NNE 5 9 1010.1 - 0.0 - - - - - - -
31/02:00pm 31.9 NNE 6 9 1010.4 - 0.0 - - - - - - -
31/01:30pm 31.6 NNE 4 6 1010.8 - 0.0 - - - - - - -
31/01:00pm 31.1 NNE 4 6 1011.3 - 0.0 - - - - - - -
31/12:30pm 30.9 NNE 5 7 1011.8 - 0.0 - - - - - - -
31/12:00pm 30.7 NE 4 5 1012.4 - 0.0 - - - - - - -
31/11:30am 30.8 NE 4 5 1012.7 - 0.0 - - - - - - -
31/11:00am 31.0 ENE 4 7 1013.0 - 0.0 - - - - - - -
31/10:30am 30.8 ENE 4 7 1013.2 - 0.0 - - - - - - -
31/10:00am 30.2 E 5 7 1013.4 - 0.0 - - - - - - -
31/09:30am 29.4 ESE 4 6 1013.4 - 0.0 - - - - - - -
31/09:00am 29.1 SE 3 4 1013.6 - 0.2 - - - - - - -
31/08:30am 28.2 SE 3 5 1013.4 - 0.2 - - - - - - -
31/08:00am 27.6 SSE 4 5 1013.0 - 0.2 - - - - - - -
31/07:30am 26.2 SSE 4 7 1012.7 - 0.2 - - - - - - -
31/07:00am 25.5 SSE 4 5 1012.4 - 0.2 - - - - - - -
31/06:30am 25.5 SSE 4 6 1012.2 - 0.2 - - - - - - -
31/06:00am 25.6 S 4 6 1012.0 - 0.2 - - - - - - -
31/05:30am 25.5 S 4 6 1011.5 - 0.2 - - - - - - -
31/05:00am 25.5 S 5 6 1011.2 - 0.2 - - - - - - -
31/04:30am 25.4 S 4 5 1011.1 - 0.2 - - - - - - -
31/04:00am 25.3 S 5 7 1011.1 - 0.2 - - - - - - -
31/03:30am 25.4 S 5 7 1011.2 - 0.2 - - - - - - -
31/03:00am 26.1 S 4 5 1011.2 - 0.2 - - - - - - -
31/02:30am 28.3 E 3 5 1011.4 - 0.2 - - - - - - -
31/02:00am 28.8 ENE 4 7 1011.6 - 0.2 - - - - - - -
31/01:30am 28.9 ENE 4 7 1011.9 - 0.2 - - - - - - -
31/01:00am 29.5 NE 7 9 1012.2 - 0.2 - - - - - - -
31/12:30am 29.6 NE 7 11 1012.5 - 0.2 - - - - - - -
31/12:00am 29.3 NE 6 9 1012.6 - 0.2 - - - - - - -
 
Date/Time
CST
Temp

°C
Wind Pressure Rain
since 9am
mm
Weather Cloud Vis
km
Sea
Height
m
Swell
Dir
 
Speed
knots
Gust
knots
hPa Trend Height
m
Period
s
Dir
30/11:30pm 29.5 NE 6 9 1012.8 - 0.2 - - - - - - -
30/11:00pm 29.4 NE 6 8 1012.8 - 0.2 - - - - - - -
30/10:30pm 29.1 ENE 4 8 1012.9 - 0.2 - - - - - - -
30/10:00pm 29.1 ENE 4 8 1012.7 - 0.2 - - - - - - -
30/09:30pm 29.4 ENE 6 9 1012.6 - 0.2 - - - - - - -
30/09:00pm 29.7 NE 6 10 1012.4 - 0.2 - - - - - - -
30/08:30pm 29.7 ENE 8 12 1012.1 - 0.2 - - - - - - -
30/08:00pm 29.8 NE 9 13 1011.7 - 0.2 - - - - - - -
30/07:30pm 29.9 NE 9 13 1011.4 - 0.2 - - - - - - -
30/07:00pm 30.0 NE 11 15 1011.1 - 0.2 - - - - - - -
30/06:30pm 30.2 NE 11 16 1010.8 - 0.2 - - - - - - -
30/06:00pm 30.3 NE 12 17 1010.7 - 0.2 - - - - - - -
30/05:30pm 30.4 NE 12 17 1010.5 - 0.2 - - - - - - -
30/05:00pm 30.6 NE 13 18 1010.4 - 0.2 - - - - - - -
30/04:30pm 30.6 NE 12 17 1010.5 - 0.2 - - - - - - -
30/04:00pm 30.8 NE 11 16 1010.5 - 0.2 - - - - - - -
30/03:30pm 30.9 NE 11 15 1010.6 - 0.2 - - - - - - -
30/03:00pm 31.2 NE 10 13 1010.5 - 0.2 - - - - - - -
30/02:30pm 31.7 NE 7 9 1010.7 - 0.2 - - - - - - -
30/02:00pm 31.7 NE 7 9 1011.0 - 0.2 - - - - - - -
30/01:30pm 31.7 NE 6 9 1011.2 - 0.2 - - - - - - -
30/01:00pm 31.6 NE 5 7 1011.5 - 0.2 - - - - - - -
30/12:30pm 31.2 NE 5 7 1011.9 - 0.2 - - - - - - -
30/12:00pm 31.3 ENE 5 8 1012.5 - 0.2 - - - - - - -
30/11:30am 30.6 ENE 6 10 1012.8 - 0.2 - - - - - - -
30/11:00am 30.4 ENE 6 10 1013.1 - 0.2 - - - - - - -
30/10:30am 30.7 E 6 9 1013.2 - 0.2 - - - - - - -
30/10:00am 30.4 E 5 8 1013.3 - 0.2 - - - - - - -
30/09:30am 29.9 ESE 6 9 1013.4 - 0.0 - - - - - - -
30/09:00am 29.7 ESE 5 9 1013.3 - 0.2 - - - - - - -
30/08:30am 29.3 E 3 5 1012.8 - 0.2 - - - - - - -
30/08:00am 28.2 ESE 4 6 1012.6 - 0.2 - - - - - - -
30/07:30am 26.4 ESE 3 5 1012.1 - 0.2 - - - - - - -
30/07:00am 25.5 ESE 2 3 1011.8 - 0.2 - - - - - - -
30/06:30am 25.5 SE 3 4 1011.4 - 0.2 - - - - - - -
30/06:00am 25.7 ESE 3 5 1011.2 - 0.2 - - - - - - -
30/05:30am 25.1 SE 4 5 1011.0 - 0.2 - - - - - - -
30/05:00am 24.3 SSE 3 3 1010.9 - 0.2 - - - - - - -
30/04:30am 24.4 S 3 4 1010.7 - 0.2 - - - - - - -
30/04:00am 24.5 SSE 3 4 1010.8 - 0.2 - - - - - - -
30/03:30am 24.7 SSE 2 3 1011.0 - 0.2 - - - - - - -
30/03:00am 24.9 SSE 2 3 1011.1 - 0.2 - - - - - - -
30/02:30am 25.2 SSE 3 4 1011.2 - 0.2 - - - - - - -
30/02:00am 25.4 SSE 3 4 1011.6 - 0.2 - - - - - - -
30/01:30am 25.4 S 3 4 1012.0 - 0.2 - - - - - - -
30/01:00am 25.7 SSE 3 5 1012.3 - 0.2 - - - - - - -
30/12:30am 25.5 SSE 3 4 1012.6 - 0.2 - - - - - - -
30/12:00am 25.6 SE 2 3 1012.9 - 0.2 - - - - - - -
 
Date/Time
CST
Temp

°C
Wind Pressure Rain
since 9am
mm
Weather Cloud Vis
km
Sea
Height
m
Swell
Dir
 
Speed
knots
Gust
knots
hPa Trend Height
m
Period
s
Dir
29/11:30pm 25.9 SSE 2 2 1013.1 - 0.2 - - - - - - -
29/11:00pm 25.9 SSE 2 3 1013.1 - 0.2 - - - - - - -
29/10:30pm 26.2 S 2 3 1013.3 - 0.2 - - - - - - -
29/10:00pm 26.4 S 2 3 1013.2 - 0.2 - - - - - - -
29/09:30pm 26.6 S 2 3 1013.0 - 0.2 - - - - - - -
29/09:00pm 27.2 SSE 1 2 1012.7 - 0.2 - - - - - - -
29/08:30pm 28.1 E 2 3 1012.3 - 0.2 - - - - - - -
29/08:00pm 29.9 NE 6 8 1011.9 - 0.2 - - - - - - -
29/07:30pm 29.8 NE 7 9 1011.6 - 0.2 - - - - - - -
29/07:00pm 29.6 NE 6 9 1011.3 - 0.2 - - - - - - -
29/06:30pm 29.6 NE 7 10 1010.8 - 0.2 - - - - - - -
29/06:00pm 30.0 NNE 8 11 1010.6 - 0.2 - - - - - - -
29/05:30pm 30.1 NNE 7 10 1010.3 - 0.2 - - - - - - -
29/05:00pm 29.3 NE 6 9 1010.3 - 0.2 - - - - - - -
29/04:30pm 30.4 NNE 8 11 1010.2 - 0.2 - - - - - - -
29/04:00pm 30.3 NNE 9 11 1010.2 - 0.2 - - - - - - -
29/03:30pm 30.7 N 6 8 1010.3 - 0.2 - - - - - - -
29/03:00pm 30.8 NNE 5 7 1010.4 - 0.2 - - - - - - -
29/02:30pm 30.6 NNE 4 6 1010.7 - 0.2 - - - - - - -
29/02:00pm 30.5 NNE 5 6 1011.1 - 0.2 - - - - - - -
29/01:30pm 30.7 NE 4 6 1011.5 - 0.2 - - - - - - -
29/01:00pm 30.7 NE 5 8 1012.0 - 0.2 - - - - - - -
29/12:30pm 30.7 NE 5 8 1012.5 - 0.2 - - - - - - -
29/12:00pm 30.9 ENE 4 6 1012.9 - 0.2 - - - - - - -
29/11:30am 30.5 E 4 7 1013.2 - 0.2 - - - - - - -
29/11:00am 30.5 E 4 7 1013.4 - 0.2 - - - - - - -
29/10:30am 30.1 ENE 4 8 1013.6 - 0.2 - - - - - - -
29/10:00am 29.9 E 4 7 1013.5 - 0.2 - - - - - - -
29/09:30am 28.8 ESE 3 5 1013.5 - 0.0 - - - - - - -

Other Formats:

Comma delimited format used in spreadsheet applications
http://www.bom.gov.au/fwo/IDD60701/IDD60701.99510.axf

JavaScript Object Notation format (JSON) in row-major order
http://www.bom.gov.au/fwo/IDD60701/IDD60701.99510.json